createdAt,value
2016-09-16T00:00:53.471Z,1002.63
2016-09-16T00:01:53.452Z,1002.68
2016-09-16T00:02:53.432Z,1002.69
2016-09-16T00:03:53.413Z,1002.71
2016-09-16T00:04:53.394Z,1002.74
2016-09-16T00:05:53.376Z,1002.71
2016-09-16T00:06:53.357Z,1002.7
2016-09-16T00:07:53.338Z,1002.62
2016-09-16T00:08:53.318Z,1002.75
2016-09-16T00:09:53.300Z,1002.81
2016-09-16T00:10:53.280Z,1002.82
2016-09-16T00:11:53.261Z,1002.76
2016-09-16T00:12:53.246Z,1002.79
2016-09-16T00:13:53.222Z,1002.77
2016-09-16T00:14:53.204Z,1002.79
2016-09-16T00:15:53.182Z,1002.73
2016-09-16T00:16:53.164Z,1002.73
2016-09-16T00:17:53.146Z,1002.69
2016-09-16T00:18:53.126Z,1002.67
2016-09-16T00:19:53.106Z,1002.81
2016-09-16T00:20:53.088Z,1002.59
2016-09-16T00:21:53.069Z,1002.63
2016-09-16T00:22:53.051Z,1002.79
2016-09-16T00:23:53.030Z,1002.76
2016-09-16T00:24:53.011Z,1002.75
2016-09-16T00:25:52.992Z,1002.73
2016-09-16T00:26:52.971Z,1002.7
2016-09-16T00:27:52.953Z,1002.71
2016-09-16T00:28:52.939Z,1002.68
2016-09-16T00:29:52.915Z,1002.67
2016-09-16T00:30:52.895Z,1002.71
2016-09-16T00:31:52.876Z,1002.58
2016-09-16T00:32:52.857Z,1002.65
2016-09-16T00:33:52.837Z,1002.74
2016-09-16T00:34:52.816Z,1002.75
2016-09-16T00:35:52.799Z,1002.84
2016-09-16T00:36:52.778Z,1002.85
2016-09-16T00:37:52.760Z,1002.77
2016-09-16T00:38:52.740Z,1002.8
2016-09-16T00:39:52.722Z,1002.83
2016-09-16T00:40:52.702Z,1002.8
2016-09-16T00:41:52.681Z,1002.8
2016-09-16T00:42:52.663Z,1002.82
2016-09-16T00:43:52.644Z,1002.86
2016-09-16T00:44:52.624Z,1002.94
2016-09-16T00:45:52.604Z,1002.95
2016-09-16T00:46:52.585Z,1002.92
2016-09-16T00:47:52.566Z,1002.89
2016-09-16T00:48:52.545Z,1002.93
2016-09-16T00:49:52.526Z,1002.93
2016-09-16T00:50:52.507Z,1002.93
2016-09-16T00:51:52.487Z,1002.96
2016-09-16T00:52:52.467Z,1002.93
2016-09-16T00:53:52.449Z,1002.89
2016-09-16T00:54:52.429Z,1002.95
2016-09-16T00:55:52.410Z,1002.92
2016-09-16T00:56:52.391Z,1002.95
2016-09-16T00:57:52.372Z,1002.92
2016-09-16T00:58:52.352Z,1002.87
2016-09-16T00:59:52.332Z,1002.91
2016-09-16T01:00:52.313Z,1002.9
2016-09-16T01:01:52.295Z,1002.85
2016-09-16T01:02:52.274Z,1002.89
2016-09-16T01:03:52.255Z,1002.87
2016-09-16T01:04:52.235Z,1002.98
2016-09-16T01:05:52.217Z,1002.94
2016-09-16T01:06:52.194Z,1002.95
2016-09-16T01:07:52.177Z,1002.98
2016-09-16T01:08:52.156Z,1002.96
2016-09-16T01:09:52.138Z,1002.94
2016-09-16T01:10:52.118Z,1003
2016-09-16T01:11:52.098Z,1003
2016-09-16T01:12:52.080Z,1002.99
2016-09-16T01:13:52.060Z,1002.93
2016-09-16T01:14:52.039Z,1002.97
2016-09-16T01:15:52.020Z,1002.99
2016-09-16T01:16:52.002Z,1003
2016-09-16T01:17:51.980Z,1002.96
2016-09-16T01:18:51.963Z,1003
2016-09-16T01:19:51.941Z,1002.98
2016-09-16T01:20:51.924Z,1003.1
2016-09-16T01:21:51.902Z,1003.02
2016-09-16T01:22:51.885Z,1003.08
2016-09-16T01:23:51.864Z,1003.09
2016-09-16T01:24:51.846Z,1003.16
2016-09-16T01:25:51.825Z,1003.04
2016-09-16T01:26:51.805Z,1003.14
2016-09-16T01:27:51.794Z,1003.15
2016-09-16T01:28:51.765Z,1003.2
2016-09-16T01:29:51.747Z,1003.16
2016-09-16T01:30:51.728Z,1003.16
2016-09-16T01:31:51.708Z,1003.16
2016-09-16T01:32:51.685Z,1003.13
2016-09-16T01:33:51.666Z,1003.16
2016-09-16T01:34:51.647Z,1003.15
2016-09-16T01:35:51.627Z,1003.1
2016-09-16T01:36:51.606Z,1003.08
2016-09-16T01:37:51.587Z,1003.07
2016-09-16T01:38:51.565Z,1003.01
2016-09-16T01:39:51.546Z,1003
2016-09-16T01:40:51.525Z,1003.02
2016-09-16T01:41:51.505Z,1003
2016-09-16T01:42:51.486Z,1003
2016-09-16T01:43:51.465Z,1003.05
2016-09-16T01:44:51.444Z,1003.04
2016-09-16T01:45:51.425Z,1002.99
2016-09-16T01:46:51.405Z,1002.98
2016-09-16T01:47:51.387Z,1002.93
2016-09-16T01:48:51.362Z,1002.91
2016-09-16T01:49:51.350Z,1002.87
2016-09-16T01:50:51.322Z,1002.87
2016-09-16T01:51:51.302Z,1002.88
2016-09-16T01:52:51.283Z,1002.91
2016-09-16T01:53:51.262Z,1002.85
2016-09-16T01:54:51.241Z,1002.92
2016-09-16T01:55:51.221Z,1002.92
2016-09-16T01:56:51.202Z,1002.96
2016-09-16T01:57:51.180Z,1002.92
2016-09-16T01:58:51.160Z,1002.92
2016-09-16T01:59:51.139Z,1002.92
2016-09-16T02:00:51.175Z,1002.85
2016-09-16T02:01:51.104Z,1002.87
2016-09-16T02:02:51.078Z,1002.89
2016-09-16T02:03:51.058Z,1002.87
2016-09-16T02:04:51.037Z,1002.92
2016-09-16T02:05:51.016Z,1002.97
2016-09-16T02:06:50.995Z,1002.98
2016-09-16T02:07:50.975Z,1003.01
2016-09-16T02:08:50.956Z,1003.01
2016-09-16T02:09:50.934Z,1003.04
2016-09-16T02:10:50.914Z,1003.08
2016-09-16T02:11:50.893Z,1003.07
2016-09-16T02:12:50.872Z,1003.11
2016-09-16T02:13:50.852Z,1003.11
2016-09-16T02:14:50.831Z,1003.07
2016-09-16T02:15:50.812Z,1003.07
2016-09-16T02:16:50.788Z,1003.1
2016-09-16T02:17:50.770Z,1003.06
2016-09-16T02:18:50.748Z,1003.05
2016-09-16T02:19:50.728Z,1003.06
2016-09-16T02:20:50.707Z,1003.06
2016-09-16T02:21:50.687Z,1003.01
2016-09-16T02:22:50.667Z,1003.04
2016-09-16T02:23:50.645Z,1002.99
2016-09-16T02:24:50.625Z,1003.04
2016-09-16T02:25:50.604Z,1002.99
2016-09-16T02:26:50.583Z,1002.98
2016-09-16T02:27:50.563Z,1003.01
2016-09-16T02:28:50.541Z,1003.04
2016-09-16T02:29:50.533Z,1003.09
2016-09-16T02:30:50.502Z,1003.1
2016-09-16T02:31:50.481Z,1003.17
2016-09-16T02:32:50.461Z,1003.09
2016-09-16T02:33:50.439Z,1003.13
2016-09-16T02:34:50.418Z,1003.11
2016-09-16T02:35:50.397Z,1003.13
2016-09-16T02:36:50.379Z,1003.13
2016-09-16T02:37:50.357Z,1003.15
2016-09-16T02:38:50.335Z,1003.14
2016-09-16T02:39:50.316Z,1003.17
2016-09-16T02:40:50.295Z,1003.19
2016-09-16T02:41:50.273Z,1003.2
2016-09-16T02:42:50.254Z,1003.2
2016-09-16T02:43:50.232Z,1003.21
2016-09-16T02:44:50.212Z,1003.22
2016-09-16T02:45:50.191Z,1003.25
2016-09-16T02:46:50.171Z,1003.22
2016-09-16T02:47:50.149Z,1003.2
2016-09-16T02:48:50.129Z,1003.19
2016-09-16T02:49:50.108Z,1003.19
2016-09-16T02:50:50.085Z,1003.2
2016-09-16T02:51:50.067Z,1003.17
2016-09-16T02:52:50.044Z,1003.17
2016-09-16T02:53:50.025Z,1003.16
2016-09-16T02:54:50.004Z,1003.13
2016-09-16T02:55:49.983Z,1003.13
2016-09-16T02:56:49.961Z,1003.13
2016-09-16T02:57:49.941Z,1003.1
2016-09-16T02:58:49.920Z,1003.11
2016-09-16T02:59:49.900Z,1003.09
2016-09-16T03:00:49.879Z,1003.09
2016-09-16T03:01:49.857Z,1003.09
2016-09-16T03:02:49.837Z,1003.05
2016-09-16T03:03:49.820Z,1003.05
2016-09-16T03:04:49.795Z,1003.02
2016-09-16T03:05:49.776Z,1002.97
2016-09-16T03:06:49.754Z,1002.96
2016-09-16T03:07:49.733Z,1002.96
2016-09-16T03:08:49.713Z,1002.99
2016-09-16T03:09:49.693Z,1002.99
2016-09-16T03:10:49.672Z,1003.01
2016-09-16T03:11:49.652Z,1002.99
2016-09-16T03:12:49.631Z,1002.97
2016-09-16T03:13:49.612Z,1002.95
2016-09-16T03:14:49.590Z,1002.92
2016-09-16T03:15:49.568Z,1002.92
2016-09-16T03:16:49.547Z,1002.92
2016-09-16T03:17:49.528Z,1002.91
2016-09-16T03:18:49.506Z,1002.91
2016-09-16T03:19:49.487Z,1002.88
2016-09-16T03:20:49.465Z,1002.85
2016-09-16T03:21:49.446Z,1002.89
2016-09-16T03:22:49.424Z,1002.92
2016-09-16T03:23:49.404Z,1002.91
2016-09-16T03:24:49.383Z,1002.89
2016-09-16T03:25:49.362Z,1002.92
2016-09-16T03:26:49.343Z,1002.92
2016-09-16T03:27:49.321Z,1002.95
2016-09-16T03:28:49.302Z,1002.95
2016-09-16T03:29:49.279Z,1002.93
2016-09-16T03:30:49.260Z,1002.93
2016-09-16T03:31:49.239Z,1002.95
2016-09-16T03:32:49.219Z,1002.93
2016-09-16T03:33:49.198Z,1002.91
2016-09-16T03:34:49.176Z,1002.89
2016-09-16T03:35:49.159Z,1002.81
2016-09-16T03:36:49.135Z,1002.89
2016-09-16T03:37:49.116Z,1002.84
2016-09-16T03:38:49.097Z,1002.84
2016-09-16T03:39:49.074Z,1002.84
2016-09-16T03:40:49.052Z,1002.88
2016-09-16T03:41:49.033Z,1002.87
2016-09-16T03:42:49.013Z,1002.86
2016-09-16T03:43:48.992Z,1002.84
2016-09-16T03:44:48.970Z,1002.9
2016-09-16T03:45:48.951Z,1002.86
2016-09-16T03:46:48.929Z,1002.83
2016-09-16T03:47:48.909Z,1002.85
2016-09-16T03:48:48.890Z,1002.86
2016-09-16T03:49:48.867Z,1002.86
2016-09-16T03:50:48.847Z,1002.87
2016-09-16T03:51:48.826Z,1002.82
2016-09-16T03:52:48.804Z,1002.89
2016-09-16T03:53:48.784Z,1002.92
2016-09-16T03:54:48.764Z,1002.9
2016-09-16T03:55:48.742Z,1002.92
2016-09-16T03:56:48.720Z,1002.91
2016-09-16T03:57:48.702Z,1002.87
2016-09-16T03:58:48.680Z,1002.87
2016-09-16T03:59:48.660Z,1002.87
2016-09-16T04:00:48.642Z,1002.9
2016-09-16T04:01:48.618Z,1002.9
2016-09-16T04:02:48.597Z,1002.9
2016-09-16T04:03:48.576Z,1002.91
2016-09-16T04:04:48.557Z,1002.92
2016-09-16T04:05:48.535Z,1002.91
2016-09-16T04:06:48.514Z,1002.93
2016-09-16T04:07:48.494Z,1002.97
2016-09-16T04:08:48.473Z,1002.94
2016-09-16T04:09:48.451Z,1002.95
2016-09-16T04:10:48.431Z,1002.93
2016-09-16T04:11:48.411Z,1002.94
2016-09-16T04:12:48.391Z,1002.89
2016-09-16T04:13:48.369Z,1002.94
2016-09-16T04:14:48.350Z,1002.89
2016-09-16T04:15:48.327Z,1002.92
2016-09-16T04:16:48.307Z,1002.91
2016-09-16T04:17:48.286Z,1002.92
2016-09-16T04:18:48.266Z,1002.9
2016-09-16T04:19:48.245Z,1002.9
2016-09-16T04:20:48.224Z,1002.88
2016-09-16T04:21:48.203Z,1002.86
2016-09-16T04:22:48.184Z,1002.87
2016-09-16T04:23:48.162Z,1002.85
2016-09-16T04:24:48.142Z,1002.84
2016-09-16T04:25:48.123Z,1002.85
2016-09-16T04:26:48.103Z,1002.86
2016-09-16T04:27:48.081Z,1002.83
2016-09-16T04:28:48.060Z,1002.8
2016-09-16T04:29:48.040Z,1002.79
2016-09-16T04:30:48.019Z,1002.77
2016-09-16T04:31:47.998Z,1002.75
2016-09-16T04:32:47.977Z,1002.69
2016-09-16T04:33:47.957Z,1002.68
2016-09-16T04:34:47.939Z,1002.7
2016-09-16T04:35:47.916Z,1002.7
2016-09-16T04:36:47.897Z,1002.68
2016-09-16T04:37:47.879Z,1002.71
2016-09-16T04:38:47.855Z,1002.76
2016-09-16T04:39:47.834Z,1002.76
2016-09-16T04:40:47.819Z,1002.71
2016-09-16T04:41:47.794Z,1002.71
2016-09-16T04:42:47.775Z,1002.78
2016-09-16T04:43:47.753Z,1002.76
2016-09-16T04:44:47.734Z,1002.81
2016-09-16T04:45:47.713Z,1002.8
2016-09-16T04:46:47.692Z,1002.79
2016-09-16T04:47:47.672Z,1002.79
2016-09-16T04:48:47.652Z,1002.79
2016-09-16T04:49:47.630Z,1002.77
2016-09-16T04:50:47.611Z,1002.8
2016-09-16T04:51:47.589Z,1002.8
2016-09-16T04:52:47.569Z,1002.79
2016-09-16T04:53:47.549Z,1002.78
2016-09-16T04:54:47.528Z,1002.79
2016-09-16T04:55:47.509Z,1002.79
2016-09-16T04:56:47.489Z,1002.76
2016-09-16T04:57:47.466Z,1002.78
2016-09-16T04:58:47.447Z,1002.78
2016-09-16T04:59:47.426Z,1002.79
2016-09-16T05:00:47.404Z,1002.83
2016-09-16T05:01:47.384Z,1002.82
2016-09-16T05:02:47.364Z,1002.83
2016-09-16T05:03:47.343Z,1002.9
2016-09-16T05:04:47.322Z,1002.93
2016-09-16T05:05:47.301Z,1002.91
2016-09-16T05:06:47.281Z,1002.86
2016-09-16T05:07:47.261Z,1002.87
2016-09-16T05:08:47.240Z,1002.91
2016-09-16T05:09:47.219Z,1002.89
2016-09-16T05:10:47.199Z,1002.87
2016-09-16T05:11:47.178Z,1002.87
2016-09-16T05:12:47.158Z,1002.87
2016-09-16T05:13:47.138Z,1002.81
2016-09-16T05:14:47.117Z,1002.83
2016-09-16T05:15:47.096Z,1002.83
2016-09-16T05:16:47.076Z,1002.77
2016-09-16T05:17:47.056Z,1002.76
2016-09-16T05:18:47.034Z,1002.84
2016-09-16T05:19:47.013Z,1002.85
2016-09-16T05:20:46.995Z,1002.88
2016-09-16T05:21:46.974Z,1002.86
2016-09-16T05:22:46.952Z,1002.86
2016-09-16T05:23:46.932Z,1002.84
2016-09-16T05:24:46.916Z,1002.83
2016-09-16T05:25:46.891Z,1002.83
2016-09-16T05:26:46.870Z,1002.86
2016-09-16T05:27:46.850Z,1002.89
2016-09-16T05:28:46.829Z,1002.96
2016-09-16T05:29:46.809Z,1002.93
2016-09-16T05:30:46.787Z,1002.97
2016-09-16T05:31:46.768Z,1002.95
2016-09-16T05:32:46.748Z,1002.94
2016-09-16T05:33:46.727Z,1002.93
2016-09-16T05:34:46.706Z,1002.9
2016-09-16T05:35:46.685Z,1002.92
2016-09-16T05:36:46.666Z,1002.93
2016-09-16T05:37:46.644Z,1002.92
2016-09-16T05:38:46.624Z,1002.9
2016-09-16T05:39:46.610Z,1002.91
2016-09-16T05:40:46.584Z,1002.97
2016-09-16T05:41:46.564Z,1002.93
2016-09-16T05:42:46.542Z,1002.96
2016-09-16T05:43:46.523Z,1002.96
2016-09-16T05:44:46.502Z,1002.92
2016-09-16T05:45:46.483Z,1002.95
2016-09-16T05:46:46.461Z,1002.96
2016-09-16T05:47:46.441Z,1002.97
2016-09-16T05:48:46.421Z,1002.93
2016-09-16T05:49:46.401Z,1002.97
2016-09-16T05:50:46.381Z,1002.97
2016-09-16T05:51:46.360Z,1003.02
2016-09-16T05:52:46.340Z,1002.97
2016-09-16T05:53:46.320Z,1002.98
2016-09-16T05:54:46.300Z,1002.92
2016-09-16T05:55:46.278Z,1002.92
2016-09-16T05:56:46.259Z,1002.97
2016-09-16T05:57:46.240Z,1002.96
2016-09-16T05:58:46.221Z,1002.93
2016-09-16T05:59:46.279Z,1002.93
2016-09-16T06:00:46.228Z,1002.96
2016-09-16T06:01:46.225Z,1002.93
2016-09-16T06:02:46.199Z,1002.88
2016-09-16T06:03:46.121Z,1002.88
2016-09-16T06:04:46.101Z,1002.9
2016-09-16T06:05:46.082Z,1002.89
2016-09-16T06:06:46.060Z,1002.89
2016-09-16T06:07:46.042Z,1002.88
2016-09-16T06:08:46.022Z,1002.9
2016-09-16T06:09:46.004Z,1002.87
2016-09-16T06:10:45.983Z,1002.84
2016-09-16T06:11:45.964Z,1002.86
2016-09-16T06:12:45.944Z,1002.88
2016-09-16T06:13:45.924Z,1002.86
2016-09-16T06:14:45.906Z,1002.87
2016-09-16T06:15:45.886Z,1002.89
2016-09-16T06:16:45.868Z,1002.86
2016-09-16T06:17:45.846Z,1002.88
2016-09-16T06:18:45.833Z,1002.9
2016-09-16T06:19:45.808Z,1002.92
2016-09-16T06:20:45.792Z,1002.94
2016-09-16T06:21:45.771Z,1002.98
2016-09-16T06:22:45.752Z,1002.99
2016-09-16T06:23:45.733Z,1003
2016-09-16T06:24:45.713Z,1003
2016-09-16T06:25:45.695Z,1003
2016-09-16T06:26:45.677Z,1002.97
2016-09-16T06:27:45.659Z,1003
2016-09-16T06:28:45.640Z,1003.01
2016-09-16T06:29:45.621Z,1002.99
2016-09-16T06:30:45.602Z,1003
2016-09-16T06:31:45.584Z,1003
2016-09-16T06:32:45.565Z,1003
2016-09-16T06:33:45.547Z,1003.05
2016-09-16T06:34:45.528Z,1003.02
2016-09-16T06:35:45.509Z,1003.02
2016-09-16T06:36:45.491Z,1002.97
2016-09-16T06:37:45.474Z,1002.98
2016-09-16T06:38:45.455Z,1003.03
2016-09-16T06:39:45.437Z,1003.01
2016-09-16T06:40:45.420Z,1003.04
2016-09-16T06:41:45.401Z,1003.03
2016-09-16T06:42:45.384Z,1003.02
2016-09-16T06:43:45.364Z,1003.04
2016-09-16T06:44:45.346Z,1003.06
2016-09-16T06:45:45.329Z,1003.1
2016-09-16T06:46:45.311Z,1003.07
2016-09-16T06:47:45.294Z,1003.11
2016-09-16T06:48:45.274Z,1003.1
2016-09-16T06:49:45.257Z,1003.06
2016-09-16T06:50:45.239Z,1003.1
2016-09-16T06:51:45.221Z,1003.11
2016-09-16T06:52:45.204Z,1003.13
2016-09-16T06:53:45.185Z,1003.13
2016-09-16T06:54:45.168Z,1003.09
2016-09-16T06:55:45.149Z,1003.17
2016-09-16T06:56:45.141Z,1003.12
2016-09-16T06:57:45.115Z,1003.14
2016-09-16T06:58:45.098Z,1003.14
2016-09-16T06:59:45.079Z,1003.18
2016-09-16T07:00:45.062Z,1003.17
2016-09-16T07:01:45.043Z,1003.15
2016-09-16T07:02:45.025Z,1003.15
2016-09-16T07:03:45.008Z,1003.17
2016-09-16T07:04:44.997Z,1003.17
2016-09-16T07:05:44.973Z,1003.22
2016-09-16T07:06:44.955Z,1003.24
2016-09-16T07:07:44.938Z,1003.23
2016-09-16T07:08:44.924Z,1003.2
2016-09-16T07:09:44.902Z,1003.22
2016-09-16T07:10:44.917Z,1003.19
2016-09-16T07:11:44.873Z,1003.17
2016-09-16T07:12:44.849Z,1003.24
2016-09-16T07:13:44.833Z,1003.23
2016-09-16T07:14:44.815Z,1003.27
2016-09-16T07:15:44.799Z,1003.29
2016-09-16T07:16:44.780Z,1003.33
2016-09-16T07:17:44.765Z,1003.32
2016-09-16T07:18:44.767Z,1003.32
2016-09-16T07:19:44.729Z,1003.34
2016-09-16T07:20:44.711Z,1003.26
2016-09-16T07:21:44.695Z,1003.27
2016-09-16T07:22:44.732Z,1003.21
2016-09-16T07:23:44.665Z,1003.22
2016-09-16T07:24:44.646Z,1003.24
2016-09-16T07:25:44.687Z,1003.27
2016-09-16T07:26:44.609Z,1003.27
2016-09-16T07:27:44.650Z,1003.33
2016-09-16T07:28:44.575Z,1003.34
2016-09-16T07:29:44.558Z,1003.38
2016-09-16T07:30:44.541Z,1003.34
2016-09-16T07:31:44.576Z,1003.36
2016-09-16T07:32:44.508Z,1003.33
2016-09-16T07:33:44.491Z,1003.33
2016-09-16T07:34:44.474Z,1003.34
2016-09-16T07:35:44.484Z,1003.34
2016-09-16T07:36:44.441Z,1003.36
2016-09-16T07:37:44.423Z,1003.32
2016-09-16T07:38:44.462Z,1003.34
2016-09-16T07:39:44.395Z,1003.31
2016-09-16T07:40:44.374Z,1003.35
2016-09-16T07:41:44.358Z,1003.37
2016-09-16T07:42:44.342Z,1003.4
2016-09-16T07:43:44.327Z,1003.42
2016-09-16T07:44:44.308Z,1003.44
2016-09-16T07:45:44.291Z,1003.44
2016-09-16T07:46:44.276Z,1003.42
2016-09-16T07:47:44.264Z,1003.43
2016-09-16T07:48:44.247Z,1003.4
2016-09-16T07:49:44.226Z,1003.38
2016-09-16T07:50:44.210Z,1003.33
2016-09-16T07:51:44.195Z,1003.39
2016-09-16T07:52:44.179Z,1003.34
2016-09-16T07:53:44.163Z,1003.32
2016-09-16T07:54:44.266Z,1003.39
2016-09-16T07:55:44.131Z,1003.39
2016-09-16T07:56:44.113Z,1003.38
2016-09-16T07:57:44.099Z,1003.35
2016-09-16T07:58:44.083Z,1003.41
2016-09-16T07:59:44.067Z,1003.4
2016-09-16T08:00:44.050Z,1003.4
2016-09-16T08:01:44.035Z,1003.38
2016-09-16T08:02:44.020Z,1003.35
2016-09-16T08:03:44.006Z,1003.41
2016-09-16T08:04:43.987Z,1003.41
2016-09-16T08:05:43.971Z,1003.44
2016-09-16T08:06:43.958Z,1003.47
2016-09-16T08:07:43.941Z,1003.46
2016-09-16T08:08:43.925Z,1003.47
2016-09-16T08:09:43.907Z,1003.49
2016-09-16T08:10:43.892Z,1003.53
2016-09-16T08:11:43.878Z,1003.52
2016-09-16T08:12:43.860Z,1003.52
2016-09-16T08:13:43.845Z,1003.56
2016-09-16T08:14:43.829Z,1003.52
2016-09-16T08:15:43.814Z,1003.57
2016-09-16T08:16:43.798Z,1003.59
2016-09-16T08:17:43.782Z,1003.57
2016-09-16T08:18:43.767Z,1003.55
2016-09-16T08:19:43.751Z,1003.57
2016-09-16T08:20:43.736Z,1003.56
2016-09-16T08:21:43.720Z,1003.54
2016-09-16T08:22:43.732Z,1003.5
2016-09-16T08:23:43.689Z,1003.5
2016-09-16T08:24:43.672Z,1003.51
2016-09-16T08:25:43.656Z,1003.44
2016-09-16T08:26:43.641Z,1003.51
2016-09-16T08:27:43.627Z,1003.51
2016-09-16T08:28:43.610Z,1003.54
2016-09-16T08:29:43.594Z,1003.49
2016-09-16T08:30:43.581Z,1003.53
2016-09-16T08:31:43.564Z,1003.53
2016-09-16T08:32:43.549Z,1003.49
2016-09-16T08:33:43.534Z,1003.47
2016-09-16T08:34:43.519Z,1003.5
2016-09-16T08:35:43.504Z,1003.5
2016-09-16T08:36:43.487Z,1003.54
2016-09-16T08:37:43.472Z,1003.54
2016-09-16T08:38:43.457Z,1003.54
2016-09-16T08:39:43.442Z,1003.49
2016-09-16T08:40:43.426Z,1003.51
2016-09-16T08:41:43.412Z,1003.51
2016-09-16T08:42:43.400Z,1003.47
2016-09-16T08:43:43.379Z,1003.51
2016-09-16T08:44:43.365Z,1003.55
2016-09-16T08:45:43.349Z,1003.46
2016-09-16T08:46:43.334Z,1003.43
2016-09-16T08:47:43.319Z,1003.49
2016-09-16T08:48:43.304Z,1003.47
2016-09-16T08:49:43.289Z,1003.51
2016-09-16T08:50:43.275Z,1003.52
2016-09-16T08:51:43.259Z,1003.44
2016-09-16T08:52:43.243Z,1003.48
2016-09-16T08:53:43.230Z,1003.5
2016-09-16T08:54:43.214Z,1003.45
2016-09-16T08:55:43.198Z,1003.44
2016-09-16T08:56:43.183Z,1003.44
2016-09-16T08:57:43.169Z,1003.47
2016-09-16T08:58:43.157Z,1003.42
2016-09-16T08:59:43.137Z,1003.42
2016-09-16T09:00:43.124Z,1003.43
2016-09-16T09:01:43.106Z,1003.42
2016-09-16T09:02:43.093Z,1003.36
2016-09-16T09:03:43.077Z,1003.46
2016-09-16T09:04:43.062Z,1003.47
2016-09-16T09:05:43.048Z,1003.49
2016-09-16T09:06:43.033Z,1003.44
2016-09-16T09:07:43.021Z,1003.44
2016-09-16T09:08:43.051Z,1003.42
2016-09-16T09:09:42.985Z,1003.46
2016-09-16T09:10:42.971Z,1003.4
2016-09-16T09:11:42.955Z,1003.37
2016-09-16T09:12:42.939Z,1003.38
2016-09-16T09:13:42.924Z,1003.37
2016-09-16T09:14:42.908Z,1003.42
2016-09-16T09:15:42.892Z,1003.42
2016-09-16T09:16:42.877Z,1003.46
2016-09-16T09:17:42.860Z,1003.45
2016-09-16T09:18:42.846Z,1003.47
2016-09-16T09:19:42.830Z,1003.48
2016-09-16T09:20:42.812Z,1003.42
2016-09-16T09:21:42.797Z,1003.51
2016-09-16T09:22:42.782Z,1003.5
2016-09-16T09:23:42.764Z,1003.45
2016-09-16T09:24:42.749Z,1003.44
2016-09-16T09:25:42.734Z,1003.45
2016-09-16T09:26:42.717Z,1003.49
2016-09-16T09:27:42.700Z,1003.43
2016-09-16T09:28:42.684Z,1003.45
2016-09-16T09:29:42.668Z,1003.47
2016-09-16T09:30:42.653Z,1003.43
2016-09-16T09:31:42.634Z,1003.42
2016-09-16T09:32:42.618Z,1003.43
2016-09-16T09:33:42.615Z,1003.41
2016-09-16T09:34:42.635Z,1003.43
2016-09-16T09:35:42.570Z,1003.43
2016-09-16T09:36:42.555Z,1003.41
2016-09-16T09:37:42.542Z,1003.41
2016-09-16T09:38:42.573Z,1003.37
2016-09-16T09:39:42.506Z,1003.4
2016-09-16T09:40:42.492Z,1003.39
2016-09-16T09:41:42.476Z,1003.38
2016-09-16T09:42:42.458Z,1003.32
2016-09-16T09:43:42.444Z,1003.33
2016-09-16T09:44:42.426Z,1003.39
2016-09-16T09:45:42.447Z,1003.4
2016-09-16T09:46:42.394Z,1003.37
2016-09-16T09:47:42.397Z,1003.38
2016-09-16T09:48:42.362Z,1003.35
2016-09-16T09:49:42.346Z,1003.39
2016-09-16T09:50:42.365Z,1003.42
2016-09-16T09:51:42.330Z,1003.43
2016-09-16T09:52:42.329Z,1003.38
2016-09-16T09:53:42.335Z,1003.38
2016-09-16T09:54:42.268Z,1003.35
2016-09-16T09:55:42.249Z,1003.39
2016-09-16T09:56:42.232Z,1003.34
2016-09-16T09:57:42.216Z,1003.32
2016-09-16T09:58:42.202Z,1003.43
2016-09-16T09:59:42.185Z,1003.33
2016-09-16T10:00:42.168Z,1003.34
2016-09-16T10:01:42.152Z,1003.37
2016-09-16T10:02:42.137Z,1003.42
2016-09-16T10:03:42.120Z,1003.42
2016-09-16T10:04:42.110Z,1003.43
2016-09-16T10:05:42.087Z,1003.42
2016-09-16T10:06:42.072Z,1003.44
2016-09-16T10:07:42.056Z,1003.47
2016-09-16T10:08:42.040Z,1003.43
2016-09-16T10:09:42.025Z,1003.44
2016-09-16T10:10:42.009Z,1003.42
2016-09-16T10:11:41.993Z,1003.4
2016-09-16T10:12:41.977Z,1003.36
2016-09-16T10:13:41.964Z,1003.34
2016-09-16T10:14:41.948Z,1003.39
2016-09-16T10:15:41.931Z,1003.4
2016-09-16T10:16:41.915Z,1003.41
2016-09-16T10:17:41.901Z,1003.46
2016-09-16T10:18:41.885Z,1003.46
2016-09-16T10:19:41.869Z,1003.44
2016-09-16T10:20:41.853Z,1003.43
2016-09-16T10:21:41.838Z,1003.43
2016-09-16T10:22:41.822Z,1003.45
2016-09-16T10:23:41.807Z,1003.36
2016-09-16T10:24:41.791Z,1003.39
2016-09-16T10:25:41.778Z,1003.38
2016-09-16T10:26:41.762Z,1003.36
2016-09-16T10:27:41.747Z,1003.33
2016-09-16T10:28:41.732Z,1003.26
2016-09-16T10:29:41.717Z,1003.27
2016-09-16T10:30:41.702Z,1003.22
2016-09-16T10:31:41.686Z,1003.21
2016-09-16T10:32:41.671Z,1003.22
2016-09-16T10:33:41.656Z,1003.22
2016-09-16T10:34:41.642Z,1003.21
2016-09-16T10:35:41.627Z,1003.2
2016-09-16T10:36:41.610Z,1003.18
2016-09-16T10:37:41.596Z,1003.18
2016-09-16T10:38:41.579Z,1003.19
2016-09-16T10:39:41.566Z,1003.17
2016-09-16T10:40:41.549Z,1003.17
2016-09-16T10:41:41.535Z,1003.15
2016-09-16T10:42:41.520Z,1003.2
2016-09-16T10:43:41.505Z,1003.19
2016-09-16T10:44:41.490Z,1003.21
2016-09-16T10:45:41.476Z,1003.22
2016-09-16T10:46:41.461Z,1003.22
2016-09-16T10:47:41.446Z,1003.24
2016-09-16T10:48:41.432Z,1003.16
2016-09-16T10:49:41.418Z,1003.14
2016-09-16T10:50:41.403Z,1003.22
2016-09-16T10:51:41.389Z,1003.18
2016-09-16T10:52:41.375Z,1003.15
2016-09-16T10:53:41.361Z,1003.2
2016-09-16T10:54:41.346Z,1003.2
2016-09-16T10:55:41.331Z,1003.18
2016-09-16T10:56:41.317Z,1003.21
2016-09-16T10:57:41.302Z,1003.16
2016-09-16T10:58:41.288Z,1003.14
2016-09-16T10:59:41.275Z,1003.19
2016-09-16T11:00:41.262Z,1003.18
2016-09-16T11:01:41.247Z,1003.17
2016-09-16T11:02:41.234Z,1003.13
2016-09-16T11:03:41.220Z,1003.1
2016-09-16T11:04:41.207Z,1003.12
2016-09-16T11:05:41.194Z,1003.07
2016-09-16T11:06:41.180Z,1003.07
2016-09-16T11:07:41.167Z,1003.1
2016-09-16T11:08:41.155Z,1003.07
2016-09-16T11:09:41.141Z,1003.1
2016-09-16T11:10:41.128Z,1003.12
2016-09-16T11:11:41.115Z,1003
2016-09-16T11:12:41.102Z,1003.03
2016-09-16T11:13:41.089Z,1003.03
2016-09-16T11:14:41.077Z,1002.99
2016-09-16T11:15:41.074Z,1002.97
2016-09-16T11:16:41.052Z,1003.01
2016-09-16T11:17:41.040Z,1003
2016-09-16T11:18:41.026Z,1003.01
2016-09-16T11:19:41.015Z,1002.92
2016-09-16T11:20:41.002Z,1002.87
2016-09-16T11:21:40.991Z,1002.92
2016-09-16T11:22:40.976Z,1002.9
2016-09-16T11:23:40.965Z,1002.88
2016-09-16T11:24:40.952Z,1002.87
2016-09-16T11:25:40.941Z,1002.88
2016-09-16T11:26:40.929Z,1002.86
2016-09-16T11:27:40.916Z,1002.82
2016-09-16T11:28:40.902Z,1002.87
2016-09-16T11:29:40.890Z,1002.87
2016-09-16T11:30:40.879Z,1002.89
2016-09-16T11:31:40.865Z,1002.85
2016-09-16T11:32:40.852Z,1002.84
2016-09-16T11:33:40.840Z,1002.86
2016-09-16T11:34:40.827Z,1002.87
2016-09-16T11:35:40.815Z,1002.88
2016-09-16T11:36:40.802Z,1002.9
2016-09-16T11:37:40.789Z,1002.89
2016-09-16T11:38:40.776Z,1002.92
2016-09-16T11:39:40.761Z,1002.9
2016-09-16T11:40:40.748Z,1002.82
2016-09-16T11:41:40.735Z,1002.88
2016-09-16T11:42:40.722Z,1002.86
2016-09-16T11:43:40.708Z,1002.84
2016-09-16T11:44:40.695Z,1002.87
2016-09-16T11:45:40.682Z,1002.89
2016-09-16T11:46:40.669Z,1002.86
2016-09-16T11:47:40.654Z,1002.9
2016-09-16T11:48:40.641Z,1002.93
2016-09-16T11:49:40.629Z,1002.87
2016-09-16T11:50:40.615Z,1002.89
2016-09-16T11:51:40.602Z,1002.85
2016-09-16T11:52:40.587Z,1002.89
2016-09-16T11:53:40.573Z,1002.89
2016-09-16T11:54:40.559Z,1002.83
2016-09-16T11:55:40.546Z,1002.83
2016-09-16T11:56:40.533Z,1002.83
2016-09-16T11:57:40.518Z,1002.81
2016-09-16T11:58:40.504Z,1002.84
2016-09-16T11:59:40.490Z,1002.82
2016-09-16T12:00:40.476Z,1002.82
2016-09-16T12:01:40.462Z,1002.8
2016-09-16T12:02:40.450Z,1002.73
2016-09-16T12:03:40.434Z,1002.79
2016-09-16T12:04:40.418Z,1002.76
2016-09-16T12:05:40.405Z,1002.77
2016-09-16T12:06:40.391Z,1002.75
2016-09-16T12:07:40.377Z,1002.74
2016-09-16T12:08:40.363Z,1002.72
2016-09-16T12:09:40.350Z,1002.68